createdAt,value
2018-07-02T00:00:33.448Z,16.46
2018-07-02T00:01:33.375Z,16.47
2018-07-02T00:02:33.325Z,16.49
2018-07-02T00:03:33.223Z,16.42
2018-07-02T00:04:33.147Z,16.43
2018-07-02T00:05:33.074Z,16.46
2018-07-02T00:06:32.998Z,16.39
2018-07-02T00:07:32.923Z,16.29
2018-07-02T00:08:32.847Z,16.31
2018-07-02T00:09:32.773Z,16.28
2018-07-02T00:10:32.698Z,16.26
2018-07-02T00:11:32.644Z,16.24
2018-07-02T00:12:32.548Z,16.23
2018-07-02T00:13:32.472Z,16.32
2018-07-02T00:14:32.400Z,16.23
2018-07-02T00:15:32.340Z,16.16
2018-07-02T00:16:32.251Z,16.08
2018-07-02T00:17:32.172Z,16.12
2018-07-02T00:18:32.097Z,16.10
2018-07-02T00:19:32.021Z,16.02
2018-07-02T00:20:31.948Z,15.95
2018-07-02T00:21:31.871Z,16.02
2018-07-02T00:22:31.796Z,15.98
2018-07-02T00:23:31.720Z,16.00
2018-07-02T00:24:31.652Z,15.94
2018-07-02T00:25:31.570Z,15.92
2018-07-02T00:26:31.513Z,15.94
2018-07-02T00:27:31.420Z,15.97
2018-07-02T00:28:31.344Z,15.90
2018-07-02T00:29:31.284Z,15.84
2018-07-02T00:30:31.204Z,15.84
2018-07-02T00:31:31.120Z,15.98
2018-07-02T00:32:31.051Z,16.00
2018-07-02T00:33:30.966Z,15.97
2018-07-02T00:34:30.892Z,15.95
2018-07-02T00:35:30.832Z,15.95
2018-07-02T00:36:30.744Z,15.95
2018-07-02T00:37:30.668Z,15.88
2018-07-02T00:38:30.590Z,15.90
2018-07-02T00:39:30.515Z,15.90
2018-07-02T00:40:30.440Z,15.84
2018-07-02T00:41:30.368Z,15.91
2018-07-02T00:42:30.335Z,15.90
2018-07-02T00:43:30.214Z,15.90
2018-07-02T00:44:30.139Z,15.79
2018-07-02T00:45:30.094Z,15.83
2018-07-02T00:46:30.005Z,15.80
2018-07-02T00:47:29.913Z,15.80
2018-07-02T00:48:29.833Z,15.70
2018-07-02T00:49:29.760Z,15.75
2018-07-02T00:50:29.685Z,15.67
2018-07-02T00:51:29.611Z,15.75
2018-07-02T00:52:29.534Z,15.72
2018-07-02T00:53:29.458Z,15.59
2018-07-02T00:54:29.381Z,15.61
2018-07-02T00:55:29.310Z,15.62
2018-07-02T00:56:29.235Z,15.68
2018-07-02T00:57:29.161Z,15.65
2018-07-02T00:58:29.083Z,15.65
2018-07-02T00:59:29.006Z,15.59
2018-07-02T01:00:28.931Z,15.49
2018-07-02T01:01:28.868Z,15.52
2018-07-02T01:02:28.779Z,15.47
2018-07-02T01:03:28.701Z,15.55
2018-07-02T01:04:28.626Z,15.55
2018-07-02T01:05:28.553Z,15.47
2018-07-02T01:06:28.491Z,15.42
2018-07-02T01:07:28.404Z,15.39
2018-07-02T01:08:28.324Z,15.35
2018-07-02T01:09:28.249Z,15.25
2018-07-02T01:10:28.173Z,15.22
2018-07-02T01:11:30.913Z,15.24
2018-07-02T01:12:28.034Z,15.15
2018-07-02T01:13:27.946Z,15.02
2018-07-02T01:14:27.873Z,14.92
2018-07-02T01:15:27.795Z,14.97
2018-07-02T01:16:27.720Z,14.82
2018-07-02T01:17:27.643Z,14.66
2018-07-02T01:18:27.566Z,14.66
2018-07-02T01:19:27.489Z,14.48
2018-07-02T01:20:27.414Z,14.45
2018-07-02T01:21:27.339Z,14.33
2018-07-02T01:22:27.284Z,14.30
2018-07-02T01:23:27.190Z,14.29
2018-07-02T01:24:27.112Z,14.25
2018-07-02T01:25:27.035Z,14.25
2018-07-02T01:26:26.958Z,14.17
2018-07-02T01:27:26.886Z,14.29
2018-07-02T01:28:26.808Z,14.29
2018-07-02T01:29:26.734Z,14.30
2018-07-02T01:30:26.653Z,14.26
2018-07-02T01:31:26.577Z,14.18
2018-07-02T01:32:26.507Z,14.23
2018-07-02T01:33:26.430Z,14.20
2018-07-02T01:34:26.360Z,14.23
2018-07-02T01:35:26.272Z,14.23
2018-07-02T01:36:26.199Z,14.17
2018-07-02T01:37:26.128Z,14.25
2018-07-02T01:38:26.044Z,14.26
2018-07-02T01:39:25.971Z,14.18
2018-07-02T01:40:25.893Z,14.33
2018-07-02T01:41:25.814Z,14.28
2018-07-02T01:42:25.739Z,14.20
2018-07-02T01:43:25.663Z,14.28
2018-07-02T01:44:25.595Z,14.28
2018-07-02T01:45:25.509Z,14.26
2018-07-02T01:46:25.436Z,14.32
2018-07-02T01:47:25.359Z,14.33
2018-07-02T01:48:25.283Z,14.33
2018-07-02T01:49:25.210Z,14.30
2018-07-02T01:50:25.135Z,14.35
2018-07-02T01:51:25.052Z,14.26
2018-07-02T01:52:24.976Z,14.33
2018-07-02T01:53:24.926Z,14.33
2018-07-02T01:54:24.824Z,14.25
2018-07-02T01:55:24.745Z,14.29
2018-07-02T01:56:24.669Z,14.29
2018-07-02T01:57:24.594Z,14.26
2018-07-02T01:58:24.515Z,14.26
2018-07-02T01:59:24.458Z,14.25
2018-07-02T02:00:24.364Z,14.29
2018-07-02T02:01:24.286Z,14.20
2018-07-02T02:02:24.210Z,14.22
2018-07-02T02:03:24.137Z,14.26
2018-07-02T02:04:24.071Z,14.29
2018-07-02T02:05:23.990Z,14.30
2018-07-02T02:06:23.905Z,14.28
2018-07-02T02:07:23.830Z,14.28
2018-07-02T02:08:23.751Z,14.12
2018-07-02T02:09:23.674Z,14.11
2018-07-02T02:10:23.612Z,14.17
2018-07-02T02:11:23.520Z,14.10
2018-07-02T02:12:23.449Z,14.07
2018-07-02T02:13:23.380Z,14.10
2018-07-02T02:14:23.297Z,14.03
2018-07-02T02:15:23.224Z,14.00
2018-07-02T02:16:23.138Z,13.83
2018-07-02T02:17:23.064Z,13.79
2018-07-02T02:18:22.984Z,13.67
2018-07-02T02:19:22.910Z,13.77
2018-07-02T02:20:22.847Z,13.56
2018-07-02T02:21:22.755Z,13.52
2018-07-02T02:22:22.680Z,13.49
2018-07-02T02:23:22.606Z,13.41
2018-07-02T02:24:22.530Z,13.42
2018-07-02T02:25:22.451Z,13.37
2018-07-02T02:26:22.371Z,13.30
2018-07-02T02:27:22.298Z,13.30
2018-07-02T02:28:22.219Z,13.30
2018-07-02T02:29:22.143Z,13.22
2018-07-02T02:30:22.066Z,13.22
2018-07-02T02:31:21.991Z,13.20
2018-07-02T02:32:21.910Z,13.15
2018-07-02T02:33:21.842Z,13.27
2018-07-02T02:34:21.768Z,13.28
2018-07-02T02:35:21.680Z,13.15
2018-07-02T02:36:21.618Z,13.11
2018-07-02T02:37:21.541Z,13.09
2018-07-02T02:38:21.456Z,13.15
2018-07-02T02:39:21.372Z,13.08
2018-07-02T02:40:21.294Z,13.11
2018-07-02T02:41:21.241Z,13.12
2018-07-02T02:42:21.142Z,13.19
2018-07-02T02:43:21.066Z,13.30
2018-07-02T02:44:20.987Z,13.25
2018-07-02T02:45:20.911Z,13.28
2018-07-02T02:46:20.833Z,13.25
2018-07-02T02:47:20.758Z,13.27
2018-07-02T02:48:20.682Z,13.22
2018-07-02T02:49:20.609Z,13.25
2018-07-02T02:50:20.525Z,13.19
2018-07-02T02:51:20.448Z,13.13
2018-07-02T02:52:20.370Z,13.15
2018-07-02T02:53:20.295Z,13.16
2018-07-02T02:54:20.217Z,13.12
2018-07-02T02:55:20.144Z,13.05
2018-07-02T02:56:20.062Z,13.08
2018-07-02T02:57:19.986Z,13.08
2018-07-02T02:58:19.914Z,13.13
2018-07-02T02:59:19.831Z,13.19
2018-07-02T03:00:19.751Z,13.11
2018-07-02T03:01:19.676Z,13.11
2018-07-02T03:02:19.599Z,13.08
2018-07-02T03:03:19.521Z,12.95
2018-07-02T03:04:19.447Z,13.01
2018-07-02T03:05:19.371Z,12.91
2018-07-02T03:06:19.292Z,12.86
2018-07-02T03:07:19.216Z,12.87
2018-07-02T03:08:19.177Z,12.82
2018-07-02T03:09:19.064Z,12.83
2018-07-02T03:10:18.984Z,12.87
2018-07-02T03:11:18.905Z,12.91
2018-07-02T03:12:18.824Z,12.90
2018-07-02T03:13:18.750Z,12.94
2018-07-02T03:14:18.672Z,13.04
2018-07-02T03:15:18.626Z,12.95
2018-07-02T03:16:18.517Z,12.97
2018-07-02T03:17:18.440Z,12.97
2018-07-02T03:18:18.376Z,12.95
2018-07-02T03:19:18.288Z,12.95
2018-07-02T03:20:18.244Z,12.93
2018-07-02T03:21:18.132Z,12.93
2018-07-02T03:22:18.055Z,12.98
2018-07-02T03:23:17.979Z,12.97
2018-07-02T03:24:17.897Z,13.09
2018-07-02T03:25:17.832Z,13.09
2018-07-02T03:26:17.746Z,13.08
2018-07-02T03:27:17.669Z,13.11
2018-07-02T03:28:17.588Z,13.03
2018-07-02T03:29:17.511Z,13.09
2018-07-02T03:30:17.439Z,13.09
2018-07-02T03:31:17.357Z,12.95
2018-07-02T03:32:17.280Z,12.94
2018-07-02T03:33:17.202Z,13.00
2018-07-02T03:34:17.127Z,12.90
2018-07-02T03:35:17.051Z,13.04
2018-07-02T03:36:16.968Z,12.95
2018-07-02T03:37:16.896Z,12.94
2018-07-02T03:38:16.815Z,12.93
2018-07-02T03:39:16.739Z,12.94
2018-07-02T03:40:16.661Z,12.93
2018-07-02T03:41:16.584Z,13.12
2018-07-02T03:42:16.509Z,13.08
2018-07-02T03:43:16.443Z,13.11
2018-07-02T03:44:16.351Z,13.05
2018-07-02T03:45:16.283Z,13.09
2018-07-02T03:46:16.199Z,13.05
2018-07-02T03:47:16.142Z,13.03
2018-07-02T03:48:16.041Z,13.03
2018-07-02T03:49:15.965Z,13.04
2018-07-02T03:50:15.889Z,13.15
2018-07-02T03:51:15.813Z,13.18
2018-07-02T03:52:15.736Z,13.13
2018-07-02T03:53:15.658Z,13.13
2018-07-02T03:54:15.578Z,13.15
2018-07-02T03:55:15.569Z,13.28
2018-07-02T03:56:15.427Z,13.30
2018-07-02T03:57:15.350Z,13.25
2018-07-02T03:58:15.269Z,13.30
2018-07-02T03:59:15.194Z,13.38
2018-07-02T04:00:15.116Z,13.35
2018-07-02T04:01:15.063Z,13.30
2018-07-02T04:02:14.962Z,13.22
2018-07-02T04:03:14.886Z,13.23
2018-07-02T04:04:14.805Z,13.35
2018-07-02T04:05:14.747Z,13.38
2018-07-02T04:06:14.653Z,13.38
2018-07-02T04:07:14.574Z,13.41
2018-07-02T04:08:14.496Z,13.44
2018-07-02T04:09:14.423Z,13.46
2018-07-02T04:10:14.347Z,13.39
2018-07-02T04:11:14.278Z,13.49
2018-07-02T04:12:14.324Z,13.52
2018-07-02T04:13:14.113Z,13.57
2018-07-02T04:14:14.037Z,13.57
2018-07-02T04:15:13.959Z,13.59
2018-07-02T04:16:13.881Z,13.65
2018-07-02T04:17:13.803Z,13.63
2018-07-02T04:18:13.725Z,13.75
2018-07-02T04:19:13.656Z,13.79
2018-07-02T04:20:13.571Z,13.79
2018-07-02T04:21:13.497Z,13.72
2018-07-02T04:22:13.420Z,13.79
2018-07-02T04:23:13.344Z,13.77
2018-07-02T04:24:13.267Z,13.78
2018-07-02T04:25:13.192Z,13.79
2018-07-02T04:26:13.110Z,13.79
2018-07-02T04:27:13.049Z,13.81
2018-07-02T04:28:12.955Z,13.78
2018-07-02T04:29:12.880Z,13.86
2018-07-02T04:30:12.802Z,13.93
2018-07-02T04:31:12.726Z,14.03
2018-07-02T04:32:12.650Z,14.04
2018-07-02T04:33:12.575Z,14.00
2018-07-02T04:34:12.530Z,14.08
2018-07-02T04:35:12.419Z,14.20
2018-07-02T04:36:12.341Z,14.29
2018-07-02T04:37:12.267Z,14.25
2018-07-02T04:38:12.210Z,14.29
2018-07-02T04:39:12.111Z,14.30
2018-07-02T04:40:12.036Z,14.43
2018-07-02T04:41:11.961Z,14.37
2018-07-02T04:42:11.886Z,14.43
2018-07-02T04:43:11.806Z,14.54
2018-07-02T04:44:11.739Z,14.59
2018-07-02T04:45:11.663Z,14.65
2018-07-02T04:46:11.581Z,14.72
2018-07-02T04:47:11.502Z,14.69
2018-07-02T04:48:11.615Z,14.77
2018-07-02T04:49:11.350Z,14.60
2018-07-02T04:50:11.271Z,14.63
2018-07-02T04:51:11.229Z,14.62
2018-07-02T04:52:11.117Z,14.58
2018-07-02T04:53:11.041Z,14.70
2018-07-02T04:54:10.988Z,14.60
2018-07-02T04:55:10.889Z,14.65
2018-07-02T04:56:10.811Z,14.78
2018-07-02T04:57:10.735Z,14.69
2018-07-02T04:58:10.677Z,14.82
2018-07-02T04:59:10.586Z,14.86
2018-07-02T05:00:10.509Z,14.84
2018-07-02T05:01:10.432Z,14.88
2018-07-02T05:02:10.355Z,14.86
2018-07-02T05:03:10.276Z,14.86
2018-07-02T05:04:10.204Z,14.88
2018-07-02T05:05:10.128Z,15.00
2018-07-02T05:06:10.050Z,14.92
2018-07-02T05:07:09.972Z,14.89
2018-07-02T05:08:09.896Z,14.86
2018-07-02T05:09:09.819Z,14.91
2018-07-02T05:10:09.744Z,14.86
2018-07-02T05:11:09.668Z,14.82
2018-07-02T05:12:09.593Z,14.86
2018-07-02T05:13:09.516Z,14.84
2018-07-02T05:14:09.442Z,14.99
2018-07-02T05:15:09.367Z,14.94
2018-07-02T05:16:09.297Z,15.06
2018-07-02T05:17:09.209Z,15.04
2018-07-02T05:18:09.138Z,15.09
2018-07-02T05:19:09.058Z,15.14
2018-07-02T05:20:08.996Z,15.19
2018-07-02T05:21:08.910Z,15.15
2018-07-02T05:22:08.828Z,15.29
2018-07-02T05:23:08.756Z,15.21
2018-07-02T05:24:08.676Z,15.27
2018-07-02T05:25:08.605Z,15.25
2018-07-02T05:26:08.543Z,15.33
2018-07-02T05:27:08.458Z,15.33
2018-07-02T05:28:08.375Z,15.43
2018-07-02T05:29:08.297Z,15.43
2018-07-02T05:30:08.223Z,15.44
2018-07-02T05:31:08.158Z,15.43
2018-07-02T05:32:08.072Z,15.47
2018-07-02T05:33:07.993Z,15.55
2018-07-02T05:34:07.919Z,15.54
2018-07-02T05:35:07.848Z,15.54
2018-07-02T05:36:07.767Z,15.52
2018-07-02T05:37:07.692Z,15.61
2018-07-02T05:38:07.618Z,15.59
2018-07-02T05:39:07.539Z,15.73
2018-07-02T05:40:07.469Z,15.65
2018-07-02T05:41:07.387Z,15.79
2018-07-02T05:42:07.318Z,15.70
2018-07-02T05:43:07.235Z,15.80
2018-07-02T05:44:07.159Z,15.84
2018-07-02T05:45:07.084Z,15.91
2018-07-02T05:46:07.008Z,15.88
2018-07-02T05:47:06.933Z,15.90
2018-07-02T05:48:06.855Z,15.83
2018-07-02T05:49:06.782Z,15.90
2018-07-02T05:50:06.704Z,15.83
2018-07-02T05:51:06.658Z,15.86
2018-07-02T05:52:06.555Z,16.01
2018-07-02T05:53:06.482Z,15.97
2018-07-02T05:54:06.403Z,16.04
2018-07-02T05:55:06.326Z,15.97
2018-07-02T05:56:06.250Z,16.12
2018-07-02T05:57:06.197Z,16.10
2018-07-02T05:58:06.101Z,16.09
2018-07-02T05:59:06.024Z,16.16
2018-07-02T06:00:05.977Z,16.29
2018-07-02T06:01:05.875Z,16.24
2018-07-02T06:02:05.799Z,16.29
2018-07-02T06:03:05.724Z,16.32
2018-07-02T06:04:05.649Z,16.38
2018-07-02T06:05:05.574Z,16.39
2018-07-02T06:06:05.504Z,16.35
2018-07-02T06:07:05.447Z,16.51
2018-07-02T06:08:05.362Z,16.51
2018-07-02T06:09:05.270Z,16.58
2018-07-02T06:10:05.196Z,16.56
2018-07-02T06:11:05.120Z,16.58
2018-07-02T06:12:05.043Z,16.53
2018-07-02T06:13:05.028Z,16.66
2018-07-02T06:14:04.895Z,16.65
2018-07-02T06:15:04.834Z,16.72
2018-07-02T06:16:04.753Z,16.81
2018-07-02T06:17:04.703Z,16.81
2018-07-02T06:18:04.594Z,16.87
2018-07-02T06:19:04.518Z,16.86
2018-07-02T06:20:04.440Z,16.87
2018-07-02T06:21:04.376Z,16.91
2018-07-02T06:22:04.292Z,16.86
2018-07-02T06:23:04.217Z,16.96
2018-07-02T06:24:04.143Z,16.96
2018-07-02T06:25:04.067Z,17.01
2018-07-02T06:26:03.992Z,17.05
2018-07-02T06:27:03.929Z,17.11
2018-07-02T06:28:03.843Z,17.14
2018-07-02T06:29:03.767Z,17.06
2018-07-02T06:30:03.693Z,17.12
2018-07-02T06:31:03.621Z,17.16
2018-07-02T06:32:03.546Z,17.26
2018-07-02T06:33:03.468Z,17.22
2018-07-02T06:34:03.394Z,17.39
2018-07-02T06:35:03.319Z,17.26
2018-07-02T06:36:03.243Z,17.33
2018-07-02T06:37:03.169Z,17.36
2018-07-02T06:38:03.093Z,17.42
2018-07-02T06:39:03.019Z,17.34
2018-07-02T06:40:02.944Z,17.36
2018-07-02T06:41:02.913Z,17.39
2018-07-02T06:42:02.844Z,17.46
2018-07-02T06:43:02.719Z,17.51
2018-07-02T06:44:02.643Z,17.54
2018-07-02T06:45:02.568Z,17.52
2018-07-02T06:46:02.508Z,17.63
2018-07-02T06:47:02.420Z,17.68
2018-07-02T06:48:02.348Z,17.64
2018-07-02T06:49:02.270Z,17.67
2018-07-02T06:50:02.195Z,17.76
2018-07-02T06:51:02.128Z,17.72
2018-07-02T06:52:02.046Z,17.71
2018-07-02T06:53:01.973Z,17.78
2018-07-02T06:54:01.897Z,17.78
2018-07-02T06:55:01.827Z,17.79
2018-07-02T06:56:01.748Z,17.82
2018-07-02T06:57:01.677Z,17.94
2018-07-02T06:58:01.604Z,17.92
2018-07-02T06:59:01.528Z,17.94
2018-07-02T07:00:01.451Z,18.04
2018-07-02T07:01:01.381Z,18.04
2018-07-02T07:02:01.301Z,18.07
2018-07-02T07:03:01.229Z,18.10
2018-07-02T07:04:01.155Z,18.10
2018-07-02T07:05:01.081Z,18.10
2018-07-02T07:06:01.005Z,18.18
2018-07-02T07:07:00.931Z,18.13
2018-07-02T07:08:00.858Z,18.19
2018-07-02T07:09:00.783Z,18.26
2018-07-02T07:10:00.713Z,18.35
2018-07-02T07:11:00.634Z,18.28
2018-07-02T07:12:00.568Z,18.35
2018-07-02T07:13:00.486Z,18.43
2018-07-02T07:14:00.414Z,18.38
2018-07-02T07:15:00.339Z,18.53
2018-07-02T07:16:00.281Z,18.47
2018-07-02T07:17:00.196Z,18.55
2018-07-02T07:18:00.113Z,18.55
2018-07-02T07:19:00.041Z,18.59
2018-07-02T07:19:59.985Z,18.58
2018-07-02T07:20:59.894Z,18.62
2018-07-02T07:21:59.819Z,18.70
2018-07-02T07:22:59.846Z,18.68
2018-07-02T07:23:59.671Z,18.63
2018-07-02T07:24:59.611Z,18.80
2018-07-02T07:25:59.533Z,18.78
2018-07-02T07:26:59.461Z,18.75
2018-07-02T07:27:59.375Z,18.83
2018-07-02T07:28:59.300Z,18.88
2018-07-02T07:29:59.228Z,18.83
2018-07-02T07:30:59.169Z,18.96
2018-07-02T07:31:59.083Z,19.00
2018-07-02T07:32:59.002Z,18.96
2018-07-02T07:33:58.952Z,19.04
2018-07-02T07:34:58.858Z,19.07
2018-07-02T07:35:58.786Z,19.04
2018-07-02T07:36:58.711Z,19.12
2018-07-02T07:37:58.639Z,19.11
2018-07-02T07:38:58.572Z,19.12
2018-07-02T07:39:58.489Z,19.07
2018-07-02T07:40:58.417Z,19.07
2018-07-02T07:41:58.342Z,18.99
2018-07-02T07:42:58.273Z,19.04
2018-07-02T07:43:58.204Z,19.08
2018-07-02T07:44:58.120Z,19.08
2018-07-02T07:45:58.048Z,19.04
2018-07-02T07:46:57.975Z,19.11
2018-07-02T07:47:57.910Z,19.08
2018-07-02T07:48:57.826Z,19.19
2018-07-02T07:49:57.754Z,19.19
2018-07-02T07:50:57.680Z,19.18
2018-07-02T07:51:57.605Z,19.29
2018-07-02T07:52:57.536Z,19.33
2018-07-02T07:53:57.459Z,19.21
2018-07-02T07:54:57.399Z,19.27
2018-07-02T07:55:57.311Z,19.31
2018-07-02T07:56:57.282Z,19.36
2018-07-02T07:57:57.167Z,19.27
2018-07-02T07:58:57.091Z,19.30
2018-07-02T07:59:57.022Z,19.33
2018-07-02T08:00:56.945Z,19.31
2018-07-02T08:01:56.869Z,19.41
2018-07-02T08:02:56.799Z,19.34
2018-07-02T08:03:56.722Z,19.51
2018-07-02T08:04:56.653Z,19.55
2018-07-02T08:05:56.577Z,19.48
2018-07-02T08:06:56.514Z,19.58
2018-07-02T08:07:56.429Z,19.64
2018-07-02T08:08:56.355Z,19.58
2018-07-02T08:09:56.319Z,19.59
2018-07-02T08:10:56.212Z,19.58
2018-07-02T08:11:56.147Z,19.64
2018-07-02T08:12:56.068Z,19.56
2018-07-02T08:13:55.992Z,19.58
2018-07-02T08:14:55.916Z,19.66
2018-07-02T08:15:55.844Z,19.64
2018-07-02T08:16:55.771Z,19.63
2018-07-02T08:17:55.705Z,19.77
2018-07-02T08:18:55.677Z,19.74
2018-07-02T08:19:55.549Z,19.91
2018-07-02T08:20:55.477Z,19.86
2018-07-02T08:21:55.403Z,19.86
2018-07-02T08:22:55.342Z,19.95
2018-07-02T08:23:55.256Z,19.95
2018-07-02T08:24:55.200Z,19.94
2018-07-02T08:25:55.111Z,20.00
2018-07-02T08:26:55.038Z,19.95
2018-07-02T08:27:54.965Z,19.91
2018-07-02T08:28:54.891Z,19.88
2018-07-02T08:29:54.816Z,19.89
2018-07-02T08:30:54.747Z,19.96
2018-07-02T08:31:54.677Z,19.96
2018-07-02T08:32:54.875Z,20.00
2018-07-02T08:33:54.547Z,19.91
2018-07-02T08:34:54.458Z,19.94
2018-07-02T08:35:54.379Z,19.86
2018-07-02T08:36:54.347Z,19.86
2018-07-02T08:37:54.232Z,19.89
2018-07-02T08:38:54.160Z,19.89
2018-07-02T08:39:54.087Z,19.91
2018-07-02T08:40:54.016Z,19.88
2018-07-02T08:41:53.962Z,19.89
2018-07-02T08:42:53.892Z,19.91
2018-07-02T08:43:53.795Z,19.86
2018-07-02T08:44:53.722Z,19.84
2018-07-02T08:45:53.651Z,19.84
2018-07-02T08:46:53.659Z,19.88
2018-07-02T08:47:53.503Z,19.92
2018-07-02T08:48:53.430Z,19.91
2018-07-02T08:49:53.357Z,19.95
2018-07-02T08:50:53.293Z,19.92
2018-07-02T08:51:53.239Z,20.00
2018-07-02T08:52:53.148Z,19.95
2018-07-02T08:53:53.065Z,19.91
2018-07-02T08:54:52.993Z,19.91
2018-07-02T08:55:52.916Z,19.99
2018-07-02T08:56:52.855Z,19.94
2018-07-02T08:57:52.771Z,20.09
2018-07-02T08:58:52.700Z,20.09
2018-07-02T08:59:52.623Z,20.10
2018-07-02T09:00:52.553Z,20.18
2018-07-02T09:01:52.478Z,20.04
2018-07-02T09:02:52.407Z,20.14
2018-07-02T09:03:52.332Z,20.29
2018-07-02T09:04:52.258Z,20.22
2018-07-02T09:05:52.196Z,20.26
2018-07-02T09:06:52.118Z,20.32
2018-07-02T09:07:52.038Z,20.16
2018-07-02T09:08:51.967Z,20.22
2018-07-02T09:09:51.896Z,20.34
2018-07-02T09:10:51.830Z,20.34
2018-07-02T09:11:51.749Z,20.41
2018-07-02T09:12:51.675Z,20.50
2018-07-02T09:13:51.603Z,20.52
2018-07-02T09:14:51.530Z,20.58
2018-07-02T09:15:51.457Z,20.58
2018-07-02T09:16:51.387Z,20.65
2018-07-02T09:17:51.354Z,20.65
2018-07-02T09:18:51.238Z,20.65
2018-07-02T09:19:51.168Z,20.67
2018-07-02T09:20:51.095Z,20.72
2018-07-02T09:21:51.024Z,20.72
2018-07-02T09:22:50.947Z,20.72
2018-07-02T09:23:50.922Z,20.74
2018-07-02T09:24:50.815Z,20.75
2018-07-02T09:25:50.733Z,20.72
2018-07-02T09:26:50.658Z,20.77
2018-07-02T09:27:50.583Z,20.77
2018-07-02T09:28:50.515Z,20.82
2018-07-02T09:29:50.479Z,20.85
2018-07-02T09:30:50.368Z,20.82
2018-07-02T09:31:50.291Z,20.95
2018-07-02T09:32:50.223Z,20.82
2018-07-02T09:33:50.150Z,21.00
2018-07-02T09:34:50.222Z,20.92
2018-07-02T09:35:50.548Z,20.92
2018-07-02T09:36:49.931Z,20.96
2018-07-02T09:37:49.858Z,20.96
2018-07-02T09:38:49.784Z,20.95
2018-07-02T09:39:49.711Z,21.03
2018-07-02T09:40:49.641Z,20.97
2018-07-02T09:41:49.567Z,21.17
2018-07-02T09:42:49.497Z,21.07
2018-07-02T09:43:49.422Z,21.15
2018-07-02T09:44:49.350Z,21.20
2018-07-02T09:45:49.279Z,21.14
2018-07-02T09:46:49.216Z,21.27
2018-07-02T09:47:49.136Z,21.24
2018-07-02T09:48:49.060Z,21.24
2018-07-02T09:49:49.029Z,21.30
2018-07-02T09:50:48.943Z,21.20
2018-07-02T09:51:48.843Z,21.20
2018-07-02T09:52:48.825Z,21.24
2018-07-02T09:53:48.696Z,21.25
2018-07-02T09:54:48.630Z,21.27
2018-07-02T09:55:48.552Z,21.22
2018-07-02T09:56:48.485Z,21.22
2018-07-02T09:57:48.411Z,21.14
2018-07-02T09:58:48.358Z,21.00
2018-07-02T09:59:48.265Z,21.11
2018-07-02T10:00:48.211Z,21.14
2018-07-02T10:01:48.121Z,21.18
2018-07-02T10:02:48.048Z,21.12
2018-07-02T10:03:47.974Z,21.21
2018-07-02T10:04:47.902Z,21.27
2018-07-02T10:05:47.831Z,21.22
2018-07-02T10:06:47.760Z,21.25
2018-07-02T10:07:47.702Z,21.32
2018-07-02T10:08:47.615Z,21.27
2018-07-02T10:09:47.543Z,21.27
2018-07-02T10:10:47.472Z,21.35
2018-07-02T10:11:47.401Z,21.32
2018-07-02T10:12:47.337Z,21.42
2018-07-02T10:13:47.252Z,21.48
2018-07-02T10:14:47.184Z,21.45
2018-07-02T10:15:47.107Z,21.54
2018-07-02T10:16:47.040Z,21.55
2018-07-02T10:17:46.964Z,21.66
2018-07-02T10:18:46.891Z,21.58
2018-07-02T10:19:46.847Z,21.72
2018-07-02T10:20:46.760Z,21.73
2018-07-02T10:21:46.673Z,21.72
2018-07-02T10:22:46.602Z,21.80
2018-07-02T10:23:46.534Z,21.80
2018-07-02T10:24:46.455Z,21.80
2018-07-02T10:25:46.404Z,21.85
2018-07-02T10:26:46.314Z,21.83
2018-07-02T10:27:46.244Z,21.89
2018-07-02T10:28:46.169Z,22.00
2018-07-02T10:29:46.106Z,22.06
2018-07-02T10:30:46.085Z,22.18
2018-07-02T10:31:45.953Z,22.17
2018-07-02T10:32:45.901Z,22.26
2018-07-02T10:33:45.808Z,22.30
2018-07-02T10:34:45.744Z,22.30
2018-07-02T10:35:45.666Z,22.43
2018-07-02T10:36:45.593Z,22.45
2018-07-02T10:37:45.524Z,22.48
2018-07-02T10:38:45.463Z,22.47
2018-07-02T10:39:45.378Z,22.44
2018-07-02T10:40:45.307Z,22.54
2018-07-02T10:41:45.233Z,22.39
2018-07-02T10:42:45.165Z,22.50
2018-07-02T10:43:45.091Z,22.48
2018-07-02T10:44:45.019Z,22.60
2018-07-02T10:45:44.947Z,22.70
2018-07-02T10:46:44.885Z,22.60
2018-07-02T10:47:44.806Z,22.68
2018-07-02T10:48:44.739Z,22.66
2018-07-02T10:49:44.660Z,22.78
2018-07-02T10:50:44.595Z,22.85
2018-07-02T10:51:44.518Z,22.87
2018-07-02T10:52:44.467Z,22.87
2018-07-02T10:53:44.375Z,22.88
2018-07-02T10:54:44.325Z,22.96
2018-07-02T10:55:44.305Z,23.02
2018-07-02T10:56:44.161Z,22.99
2018-07-02T10:57:44.092Z,22.96
2018-07-02T10:58:44.021Z,23.06
2018-07-02T10:59:43.972Z,23.13
2018-07-02T11:00:43.878Z,23.21
2018-07-02T11:01:43.807Z,23.17
2018-07-02T11:02:43.739Z,23.31
2018-07-02T11:03:43.708Z,23.37
2018-07-02T11:04:43.596Z,23.40
2018-07-02T11:05:43.523Z,23.51
2018-07-02T11:06:43.453Z,23.50
2018-07-02T11:07:43.381Z,23.46
2018-07-02T11:08:43.310Z,23.50
2018-07-02T11:09:43.237Z,23.61
2018-07-02T11:10:43.169Z,23.63
2018-07-02T11:11:43.112Z,23.69
2018-07-02T11:12:43.029Z,23.74
2018-07-02T11:13:42.956Z,23.84
2018-07-02T11:14:42.886Z,23.81
2018-07-02T11:15:42.815Z,23.83
2018-07-02T11:16:42.744Z,23.78
2018-07-02T11:17:42.674Z,23.81
2018-07-02T11:18:42.603Z,23.80
2018-07-02T11:19:42.535Z,23.84
2018-07-02T11:20:42.463Z,23.80
2018-07-02T11:21:42.391Z,23.76
2018-07-02T11:22:42.323Z,23.84
2018-07-02T11:23:42.328Z,23.81
2018-07-02T11:24:42.286Z,23.84
2018-07-02T11:25:42.213Z,23.86
2018-07-02T11:26:42.040Z,23.93
2018-07-02T11:27:41.967Z,24.03
2018-07-02T11:28:41.913Z,24.13
2018-07-02T11:29:41.827Z,24.23
2018-07-02T11:30:41.774Z,24.16
2018-07-02T11:31:41.708Z,23.99
2018-07-02T11:32:41.616Z,24.01
2018-07-02T11:33:41.547Z,24.03
2018-07-02T11:34:41.477Z,23.98
2018-07-02T11:35:41.408Z,24.08
2018-07-02T11:36:41.334Z,24.20
2018-07-02T11:37:41.265Z,24.30
2018-07-02T11:38:41.197Z,24.28
2018-07-02T11:39:41.126Z,24.33
2018-07-02T11:40:41.070Z,24.35
2018-07-02T11:41:41.003Z,24.40
2018-07-02T11:42:40.916Z,24.39
2018-07-02T11:43:40.844Z,24.53
2018-07-02T11:44:40.794Z,24.51
2018-07-02T11:45:40.706Z,24.58
2018-07-02T11:46:40.636Z,24.60
2018-07-02T11:47:40.565Z,24.57
2018-07-02T11:48:40.514Z,24.58
2018-07-02T11:49:40.459Z,24.68
2018-07-02T11:50:40.359Z,24.69
2018-07-02T11:51:40.305Z,24.78
2018-07-02T11:52:40.237Z,24.69
2018-07-02T11:53:40.149Z,24.78
2018-07-02T11:54:40.200Z,24.85
2018-07-02T11:55:40.037Z,24.88
2018-07-02T11:56:39.951Z,24.95
2018-07-02T11:57:39.904Z,24.92
2018-07-02T11:58:39.803Z,25.03
2018-07-02T11:59:39.732Z,25.04
2018-07-02T12:00:39.764Z,25.06
2018-07-02T12:01:39.593Z,25.13
2018-07-02T12:02:39.526Z,25.21
2018-07-02T12:03:39.477Z,25.21
2018-07-02T12:04:39.489Z,25.25
2018-07-02T12:05:39.313Z,25.31
2018-07-02T12:06:39.249Z,25.29
2018-07-02T12:07:39.176Z,25.26
2018-07-02T12:08:39.213Z,25.32
2018-07-02T12:09:39.049Z,25.36
2018-07-02T12:10:38.968Z,25.40
2018-07-02T12:11:38.902Z,25.40
2018-07-02T12:12:38.832Z,25.38
2018-07-02T12:13:38.761Z,25.36
2018-07-02T12:14:38.799Z,25.59
2018-07-02T12:15:38.631Z,25.66
2018-07-02T12:16:38.653Z,25.83
2018-07-02T12:17:38.485Z,25.90
2018-07-02T12:18:38.415Z,25.96
2018-07-02T12:19:38.446Z,25.98
2018-07-02T12:20:38.272Z,26.02
2018-07-02T12:21:38.310Z,26.00
2018-07-02T12:22:38.135Z,25.98
2018-07-02T12:23:38.072Z,26.03
2018-07-02T12:24:38.120Z,26.07
2018-07-02T12:25:37.932Z,26.15
2018-07-02T12:26:37.868Z,26.21
2018-07-02T12:27:37.792Z,26.26
2018-07-02T12:28:37.722Z,26.26
2018-07-02T12:29:37.756Z,26.36
2018-07-02T12:30:37.586Z,26.47
2018-07-02T12:31:37.519Z,26.47
2018-07-02T12:32:37.450Z,26.60
2018-07-02T12:33:37.415Z,26.51
2018-07-02T12:34:37.415Z,26.62
2018-07-02T12:35:37.243Z,26.75
2018-07-02T12:36:37.173Z,26.74
2018-07-02T12:37:37.110Z,26.92
2018-07-02T12:38:37.149Z,26.90
2018-07-02T12:39:37.072Z,26.88
2018-07-02T12:40:36.900Z,26.89
2018-07-02T12:41:36.833Z,26.83
2018-07-02T12:42:36.867Z,26.81
2018-07-02T12:43:36.696Z,26.80
2018-07-02T12:44:36.641Z,26.89
2018-07-02T12:45:36.574Z,26.89
2018-07-02T12:46:36.493Z,26.97
2018-07-02T12:47:36.422Z,26.99
2018-07-02T12:48:37.223Z,27.12
2018-07-02T12:49:36.296Z,27.11
2018-07-02T12:50:36.232Z,27.15
2018-07-02T12:51:36.153Z,27.21